createdAt,value
2023-07-24T00:00:06.278Z,58.29
2023-07-24T00:03:09.447Z,57.93
2023-07-24T00:06:13.629Z,57.72
2023-07-24T00:09:16.425Z,57.93
2023-07-24T00:12:19.353Z,57.81
2023-07-24T00:15:22.338Z,57.83
2023-07-24T00:18:25.208Z,57.74
2023-07-24T00:21:29.462Z,57.55
2023-07-24T00:24:32.542Z,57.81
2023-07-24T00:27:35.459Z,57.93
2023-07-24T00:30:38.280Z,57.63
2023-07-24T00:33:41.165Z,57.49
2023-07-24T00:36:45.439Z,57.53
2023-07-24T00:39:48.491Z,57.55
2023-07-24T00:42:51.259Z,57.64
2023-07-24T00:45:54.143Z,57.61
2023-07-24T00:48:56.986Z,57.76
2023-07-24T00:52:01.273Z,57.55
2023-07-24T00:55:04.280Z,57.89
2023-07-24T00:58:07.252Z,57.81
2023-07-24T01:01:11.817Z,57.79
2023-07-24T01:04:15.409Z,57.52
2023-07-24T01:07:19.651Z,57.69
2023-07-24T01:10:22.536Z,57.63
2023-07-24T01:13:26.940Z,57.69
2023-07-24T01:16:33.816Z,57.55
2023-07-24T01:19:38.833Z,58.16
2023-07-24T01:22:50.119Z,58.81
2023-07-24T01:25:58.045Z,57.95
2023-07-24T01:29:00.811Z,57.62
2023-07-24T01:32:03.676Z,57.45
2023-07-24T01:35:07.270Z,57.41
2023-07-24T01:38:10.390Z,57.20
2023-07-24T01:41:14.826Z,57.48
2023-07-24T01:44:17.683Z,57.24
2023-07-24T01:47:20.543Z,57.25
2023-07-24T01:50:23.411Z,57.22
2023-07-24T01:53:26.406Z,57.04
2023-07-24T01:56:30.935Z,57.38
2023-07-24T01:59:34.105Z,57.23
2023-07-24T02:02:36.961Z,57.06
2023-07-24T02:05:39.779Z,56.98
2023-07-24T02:08:46.660Z,57.01
2023-07-24T02:11:50.829Z,56.89
2023-07-24T02:14:54.715Z,56.86
2023-07-24T02:17:57.630Z,57.00
2023-07-24T02:21:00.455Z,57.14
2023-07-24T02:24:03.281Z,56.93
2023-07-24T02:27:08.499Z,57.10
2023-07-24T02:30:11.726Z,57.42
2023-07-24T02:33:14.500Z,56.91
2023-07-24T02:36:17.295Z,56.84
2023-07-24T02:39:20.032Z,56.54
2023-07-24T02:42:24.280Z,56.63
2023-07-24T02:45:27.086Z,56.59
2023-07-24T02:48:30.195Z,56.59
2023-07-24T02:51:33.083Z,56.81
2023-07-24T02:54:35.845Z,56.64
2023-07-24T02:57:40.000Z,56.84
2023-07-24T03:00:43.072Z,56.63
2023-07-24T03:03:46.057Z,56.90
2023-07-24T03:06:48.863Z,56.85
2023-07-24T03:09:53.315Z,56.64
2023-07-24T03:12:57.513Z,56.58
2023-07-24T03:16:00.601Z,56.65
2023-07-24T03:19:03.444Z,56.96
2023-07-24T03:22:06.270Z,56.97
2023-07-24T03:25:09.509Z,56.62
2023-07-24T03:28:13.712Z,56.61
2023-07-24T03:31:16.643Z,56.83
2023-07-24T03:34:19.568Z,57.14
2023-07-24T03:37:22.337Z,56.95
2023-07-24T03:40:25.140Z,56.77
2023-07-24T03:43:29.281Z,57.06
2023-07-24T03:46:32.436Z,56.69
2023-07-24T03:49:36.164Z,56.80
2023-07-24T03:52:38.942Z,57.01
2023-07-24T03:55:41.769Z,56.74
2023-07-24T03:58:45.988Z,56.87
2023-07-24T04:01:49.249Z,56.84
2023-07-24T04:04:52.017Z,56.54
2023-07-24T04:07:54.940Z,56.38
2023-07-24T04:10:57.742Z,56.79
2023-07-24T04:14:01.964Z,56.68
2023-07-24T04:17:04.947Z,56.76
2023-07-24T04:20:10.133Z,56.66
2023-07-24T04:23:12.920Z,56.69
2023-07-24T04:26:15.783Z,56.54
2023-07-24T04:29:24.754Z,56.91
2023-07-24T04:32:28.551Z,56.85
2023-07-24T04:35:31.395Z,56.72
2023-07-24T04:38:34.229Z,56.82
2023-07-24T04:41:37.079Z,56.84
2023-07-24T04:44:41.327Z,56.64
2023-07-24T04:47:44.706Z,56.39
2023-07-24T04:50:47.578Z,56.64
2023-07-24T04:53:50.344Z,56.31
2023-07-24T04:56:53.268Z,56.13
2023-07-24T04:59:57.460Z,55.98
2023-07-24T05:03:00.257Z,56.40
2023-07-24T05:06:03.124Z,55.86
2023-07-24T05:09:05.990Z,56.17
2023-07-24T05:12:09.147Z,56.09
2023-07-24T05:15:13.500Z,56.49
2023-07-24T05:18:16.361Z,56.31
2023-07-24T05:21:19.225Z,56.24
2023-07-24T05:24:22.041Z,56.16
2023-07-24T05:27:25.016Z,56.15
2023-07-24T05:30:29.590Z,55.89
2023-07-24T05:33:32.499Z,55.89
2023-07-24T05:36:35.292Z,56.46
2023-07-24T05:39:38.093Z,56.00
2023-07-24T05:42:43.795Z,55.96
2023-07-24T05:45:48.017Z,55.96
2023-07-24T05:48:51.075Z,55.43
2023-07-24T05:51:55.249Z,56.01
2023-07-24T05:54:58.027Z,55.63
2023-07-24T05:58:00.847Z,55.07
2023-07-24T06:01:05.752Z,55.00
2023-07-24T06:04:08.784Z,55.10
2023-07-24T06:07:11.664Z,55.05
2023-07-24T06:10:14.628Z,55.18
2023-07-24T06:13:18.530Z,55.21
2023-07-24T06:16:22.784Z,55.04
2023-07-24T06:19:25.600Z,54.74
2023-07-24T06:22:28.509Z,55.13
2023-07-24T06:25:31.395Z,55.10
2023-07-24T06:28:34.616Z,54.58
2023-07-24T06:31:38.938Z,54.39
2023-07-24T06:34:41.805Z,54.53
2023-07-24T06:37:44.685Z,54.07
2023-07-24T06:40:47.584Z,54.45
2023-07-24T06:43:50.530Z,54.66
2023-07-24T06:46:54.698Z,54.80
2023-07-24T06:49:58.659Z,54.69
2023-07-24T06:53:01.486Z,54.21
2023-07-24T06:56:04.957Z,53.82
2023-07-24T06:59:07.732Z,53.56
2023-07-24T07:02:11.925Z,53.94
2023-07-24T07:05:14.736Z,54.34
2023-07-24T07:08:17.546Z,53.87
2023-07-24T07:11:20.347Z,54.11
2023-07-24T07:14:23.107Z,53.40
2023-07-24T07:17:27.308Z,53.67
2023-07-24T07:20:30.110Z,53.66
2023-07-24T07:23:33.055Z,53.20
2023-07-24T07:26:35.935Z,53.27
2023-07-24T07:29:38.768Z,53.08
2023-07-24T07:32:42.970Z,53.57
2023-07-24T07:35:45.809Z,52.75
2023-07-24T07:38:48.604Z,52.79
2023-07-24T07:41:56.041Z,52.43
2023-07-24T07:45:04.624Z,52.62
2023-07-24T07:48:08.901Z,53.34
2023-07-24T07:51:12.245Z,53.37
2023-07-24T07:54:15.052Z,53.22
2023-07-24T07:57:18.014Z,53.00
2023-07-24T08:00:21.010Z,53.08
2023-07-24T08:03:25.190Z,53.30
2023-07-24T08:06:28.549Z,53.33
2023-07-24T08:09:33.731Z,52.95
2023-07-24T08:12:36.562Z,52.72
2023-07-24T08:15:39.951Z,52.28
2023-07-24T08:18:44.118Z,52.49
2023-07-24T08:21:46.948Z,52.99
2023-07-24T08:24:51.712Z,53.19
2023-07-24T08:28:05.484Z,52.21
2023-07-24T08:31:09.305Z,51.88
2023-07-24T08:34:13.524Z,51.92
2023-07-24T08:37:16.353Z,52.49
2023-07-24T08:40:19.348Z,52.45
2023-07-24T08:43:23.985Z,53.02
2023-07-24T08:46:27.295Z,52.40
2023-07-24T08:49:32.242Z,52.94
2023-07-24T08:52:36.898Z,52.75
2023-07-24T08:55:40.599Z,52.62
2023-07-24T08:58:43.627Z,52.75
2023-07-24T09:01:46.677Z,52.66
2023-07-24T09:04:51.090Z,52.31
2023-07-24T09:07:55.023Z,51.40
2023-07-24T09:10:57.916Z,51.52
2023-07-24T09:14:00.764Z,51.90
2023-07-24T09:17:04.172Z,52.04
2023-07-24T09:20:09.587Z,52.12
2023-07-24T09:23:17.238Z,51.84
2023-07-24T09:26:22.080Z,50.87
2023-07-24T09:29:32.367Z,50.84
2023-07-24T09:32:35.438Z,51.48
2023-07-24T09:35:39.664Z,51.75
2023-07-24T09:38:43.351Z,52.12
2023-07-24T09:41:49.576Z,52.17
2023-07-24T09:44:52.384Z,52.04
2023-07-24T09:48:02.757Z,51.80
2023-07-24T09:51:13.293Z,51.67
2023-07-24T09:54:20.481Z,52.09
2023-07-24T09:57:24.077Z,51.86
2023-07-24T10:00:27.579Z,51.79
2023-07-24T10:03:30.938Z,52.02
2023-07-24T10:06:35.497Z,51.83
2023-07-24T10:09:39.111Z,52.60
2023-07-24T10:12:42.532Z,51.98
2023-07-24T10:15:46.267Z,51.23
2023-07-24T10:21:55.169Z,51.41
2023-07-24T10:24:58.254Z,51.59
2023-07-24T10:28:08.481Z,50.88
2023-07-24T10:31:22.228Z,51.64
2023-07-24T10:34:25.223Z,51.72
2023-07-24T10:37:37.086Z,52.13
2023-07-24T10:40:39.960Z,52.12
2023-07-24T10:43:45.997Z,50.89
2023-07-24T10:46:50.917Z,52.01
2023-07-24T10:49:53.694Z,51.79
2023-07-24T10:52:58.722Z,52.15
2023-07-24T10:56:02.369Z,52.57
2023-07-24T10:59:06.488Z,52.48
2023-07-24T11:02:11.285Z,52.84
2023-07-24T11:05:14.828Z,52.64
2023-07-24T11:08:20.062Z,52.79
2023-07-24T11:11:23.664Z,52.95
2023-07-24T11:14:26.625Z,52.50
2023-07-24T11:17:36.248Z,52.59
2023-07-24T11:20:40.001Z,52.72
2023-07-24T11:23:48.349Z,52.44
2023-07-24T11:26:53.470Z,52.82
2023-07-24T11:29:56.382Z,52.74
2023-07-24T11:33:00.447Z,52.68
2023-07-24T11:36:03.241Z,52.96
2023-07-24T11:39:07.406Z,52.81
2023-07-24T11:42:10.492Z,52.65
2023-07-24T11:45:13.509Z,52.82
2023-07-24T11:48:16.875Z,53.20
2023-07-24T11:51:19.830Z,52.36
2023-07-24T11:54:24.411Z,52.45
2023-07-24T11:57:27.252Z,52.71
2023-07-24T12:00:30.260Z,52.10
2023-07-24T12:03:33.245Z,52.02
2023-07-24T12:06:36.168Z,51.92
2023-07-24T12:09:40.379Z,52.17
2023-07-24T12:12:47.360Z,52.21
2023-07-24T12:15:50.624Z,51.87
2023-07-24T12:18:53.519Z,51.88
2023-07-24T12:21:56.436Z,52.30
2023-07-24T12:25:00.589Z,52.27
2023-07-24T12:28:03.525Z,51.85
2023-07-24T12:31:07.151Z,52.29
2023-07-24T12:34:10.046Z,52.08
2023-07-24T12:37:12.913Z,52.13
2023-07-24T12:40:17.100Z,51.71
2023-07-24T12:43:19.924Z,51.83
2023-07-24T12:46:22.709Z,51.89
2023-07-24T12:49:25.717Z,51.68
2023-07-24T12:52:28.607Z,51.94
2023-07-24T12:55:32.873Z,51.78
2023-07-24T12:58:35.713Z,51.71
2023-07-24T13:01:38.480Z,51.75
2023-07-24T13:04:41.549Z,51.80
2023-07-24T13:07:44.382Z,51.86
2023-07-24T13:10:48.614Z,51.66
2023-07-24T13:13:52.089Z,51.32
2023-07-24T13:16:56.127Z,51.67
2023-07-24T13:19:59.012Z,51.57
2023-07-24T13:23:01.783Z,51.67
2023-07-24T13:26:06.001Z,51.72
2023-07-24T13:29:08.879Z,51.43
2023-07-24T13:32:11.694Z,51.17
2023-07-24T13:35:16.303Z,51.73
2023-07-24T13:38:22.056Z,51.36
2023-07-24T13:41:26.806Z,51.11
2023-07-24T13:44:29.674Z,51.56
2023-07-24T13:47:32.524Z,51.30
2023-07-24T13:50:35.412Z,51.29
2023-07-24T13:53:38.262Z,51.40
2023-07-24T13:56:42.449Z,51.42
2023-07-24T13:59:45.262Z,51.13
2023-07-24T14:02:48.144Z,51.37
2023-07-24T14:05:51.051Z,50.98
2023-07-24T14:08:53.827Z,51.37
2023-07-24T14:11:58.010Z,50.96
2023-07-24T14:15:00.854Z,50.99
2023-07-24T14:18:03.708Z,51.07
2023-07-24T14:21:06.640Z,51.27
2023-07-24T14:24:09.485Z,51.20
2023-07-24T14:27:13.690Z,51.18
2023-07-24T14:30:16.564Z,51.12
2023-07-24T14:33:19.896Z,51.07
2023-07-24T14:36:22.735Z,51.15
2023-07-24T14:39:25.632Z,50.81
2023-07-24T14:42:29.878Z,51.22
2023-07-24T14:45:32.710Z,51.39
2023-07-24T14:48:35.518Z,51.35
2023-07-24T14:51:38.628Z,51.38
2023-07-24T14:54:41.453Z,51.45
2023-07-24T14:57:45.639Z,51.53
2023-07-24T15:00:48.538Z,51.16
2023-07-24T15:03:52.003Z,51.12
2023-07-24T15:06:54.983Z,51.21
2023-07-24T15:09:57.755Z,51.18
2023-07-24T15:13:02.491Z,51.36
2023-07-24T15:16:05.594Z,51.43
2023-07-24T15:19:08.401Z,51.08
2023-07-24T15:22:11.295Z,51.56
2023-07-24T15:25:14.188Z,51.01
2023-07-24T15:28:18.464Z,51.43
2023-07-24T15:31:21.297Z,51.26
2023-07-24T15:34:24.169Z,51.12
2023-07-24T15:37:27.133Z,51.19
2023-07-24T15:40:30.112Z,51.43
2023-07-24T15:43:34.294Z,51.14
2023-07-24T15:46:37.181Z,51.10
2023-07-24T15:49:40.074Z,51.19
2023-07-24T15:52:43.038Z,51.39
2023-07-24T15:55:45.831Z,51.53
2023-07-24T15:58:51.471Z,51.38
2023-07-24T16:01:54.283Z,51.58
2023-07-24T16:04:57.267Z,51.27
2023-07-24T16:08:00.060Z,51.53
2023-07-24T16:11:03.292Z,51.18
2023-07-24T16:14:07.602Z,51.72
2023-07-24T16:17:10.474Z,51.50
2023-07-24T16:20:13.539Z,51.27
2023-07-24T16:26:36.652Z,51.52
2023-07-24T16:29:40.936Z,51.75
2023-07-24T16:32:49.226Z,51.16
2023-07-24T16:35:52.818Z,51.72
2023-07-24T16:38:55.865Z,51.39
2023-07-24T16:41:58.825Z,51.77
2023-07-24T16:45:02.986Z,51.77
2023-07-24T16:48:06.775Z,51.77
2023-07-24T16:51:09.820Z,51.47
2023-07-24T16:54:12.724Z,52.41
2023-07-24T16:57:16.859Z,51.80
2023-07-24T17:00:21.335Z,51.66
2023-07-24T17:03:24.291Z,51.81
2023-07-24T17:06:27.314Z,52.08
2023-07-24T17:09:30.179Z,52.12
2023-07-24T17:12:32.939Z,51.99
2023-07-24T17:15:37.130Z,52.95
2023-07-24T17:18:39.991Z,52.41
2023-07-24T17:21:42.791Z,52.95
2023-07-24T17:24:45.577Z,52.26
2023-07-24T17:27:48.469Z,52.62
2023-07-24T17:30:53.167Z,53.54
2023-07-24T17:33:56.084Z,53.18
2023-07-24T17:37:00.398Z,52.67
2023-07-24T17:40:04.207Z,53.17
2023-07-24T17:43:06.988Z,53.95
2023-07-24T17:46:11.283Z,53.61
2023-07-24T17:49:14.113Z,53.39
2023-07-24T17:52:16.980Z,53.45
2023-07-24T17:55:19.794Z,53.62
2023-07-24T17:58:22.694Z,53.40
2023-07-24T18:01:27.000Z,53.18
2023-07-24T18:04:30.010Z,53.64
2023-07-24T18:07:32.867Z,53.31
2023-07-24T18:10:35.690Z,53.55
2023-07-24T18:13:38.538Z,53.23
2023-07-24T18:16:42.717Z,53.43
2023-07-24T18:19:46.058Z,53.59
2023-07-24T18:22:50.762Z,53.51
2023-07-24T18:25:53.575Z,53.18
2023-07-24T18:28:57.609Z,53.25
2023-07-24T18:32:03.438Z,53.66
2023-07-24T18:35:06.778Z,53.25
2023-07-24T18:38:10.994Z,53.39
2023-07-24T18:41:13.829Z,53.56
2023-07-24T18:44:16.715Z,53.67
2023-07-24T18:47:20.966Z,53.68
2023-07-24T18:50:23.774Z,53.39
2023-07-24T18:53:26.556Z,53.72
2023-07-24T18:56:29.359Z,53.51
2023-07-24T18:59:33.370Z,53.46
2023-07-24T19:02:37.627Z,53.67
2023-07-24T19:05:40.502Z,53.78
2023-07-24T19:08:43.369Z,53.86
2023-07-24T19:11:46.137Z,53.52
2023-07-24T19:14:48.967Z,53.55
2023-07-24T19:17:53.224Z,53.52
2023-07-24T19:20:56.013Z,53.54
2023-07-24T19:23:58.855Z,53.30
2023-07-24T19:27:01.760Z,53.46
2023-07-24T19:30:07.611Z,53.71
2023-07-24T19:33:11.975Z,53.27
2023-07-24T19:36:14.797Z,53.82
2023-07-24T19:39:17.578Z,54.04
2023-07-24T19:42:20.372Z,54.42
2023-07-24T19:45:23.145Z,54.16
2023-07-24T19:48:27.497Z,55.02
2023-07-24T19:51:30.774Z,55.49
2023-07-24T19:54:33.833Z,55.19
2023-07-24T19:57:36.746Z,55.46
2023-07-24T20:00:39.529Z,55.25
2023-07-24T20:03:43.847Z,55.04
2023-07-24T20:06:46.761Z,55.27
2023-07-24T20:09:51.747Z,55.51
2023-07-24T20:12:54.691Z,55.43
2023-07-24T20:15:58.380Z,55.76
2023-07-24T20:19:02.683Z,55.27
2023-07-24T20:22:05.957Z,55.44
2023-07-24T20:25:09.174Z,55.79
2023-07-24T20:28:12.017Z,55.90
2023-07-24T20:31:14.841Z,55.80
2023-07-24T20:34:19.074Z,55.73
2023-07-24T20:37:21.923Z,56.18
2023-07-24T20:40:24.796Z,56.23
2023-07-24T20:43:27.599Z,56.07
2023-07-24T20:46:30.466Z,55.48
2023-07-24T20:49:36.305Z,56.23
2023-07-24T20:52:40.206Z,56.36
2023-07-24T20:55:43.163Z,55.70
2023-07-24T20:58:46.254Z,55.57
2023-07-24T21:01:49.122Z,55.89
2023-07-24T21:04:56.332Z,55.98
2023-07-24T21:08:00.093Z,56.44
2023-07-24T21:11:04.050Z,56.51
2023-07-24T21:14:07.043Z,56.48
2023-07-24T21:17:09.936Z,56.35
2023-07-24T21:20:14.664Z,56.43
2023-07-24T21:23:17.854Z,56.22
2023-07-24T21:26:20.702Z,56.43
2023-07-24T21:29:23.485Z,56.61
2023-07-24T21:32:26.323Z,56.12
2023-07-24T21:35:30.537Z,56.32
2023-07-24T21:38:33.634Z,56.26
2023-07-24T21:41:36.770Z,56.45
2023-07-24T21:44:39.897Z,56.38
2023-07-24T21:47:42.757Z,56.62
2023-07-24T21:50:49.986Z,56.37
2023-07-24T21:53:52.777Z,56.46
2023-07-24T21:56:55.745Z,57.23
2023-07-24T21:59:58.552Z,56.74
2023-07-24T22:03:01.395Z,57.33
2023-07-24T22:06:07.535Z,56.68
2023-07-24T22:09:10.719Z,57.23
2023-07-24T22:12:13.565Z,56.80
2023-07-24T22:15:16.521Z,56.58
2023-07-24T22:18:19.334Z,57.04
2023-07-24T22:21:23.549Z,57.08
2023-07-24T22:24:26.574Z,56.56
2023-07-24T22:27:29.743Z,57.25
2023-07-24T22:30:32.612Z,57.11
2023-07-24T22:33:35.922Z,57.40
2023-07-24T22:36:41.206Z,57.06
2023-07-24T22:39:44.108Z,57.08
2023-07-24T22:42:46.854Z,57.15
2023-07-24T22:45:50.007Z,56.62
2023-07-24T22:48:52.891Z,56.77
2023-07-24T22:51:57.148Z,57.20
2023-07-24T22:57:16.499Z,57.01
2023-07-24T23:00:19.338Z,56.71
2023-07-24T23:03:22.560Z,56.75
2023-07-24T23:06:25.766Z,57.20
2023-07-24T23:09:28.626Z,57.09
2023-07-24T23:12:32.846Z,57.27
2023-07-24T23:15:35.736Z,57.17
2023-07-24T23:18:39.049Z,57.30
2023-07-24T23:21:42.398Z,56.77
2023-07-24T23:24:45.276Z,56.40
2023-07-24T23:27:50.431Z,56.68
2023-07-24T23:30:53.319Z,57.10
2023-07-24T23:33:56.148Z,57.03
2023-07-24T23:36:58.955Z,56.81
2023-07-24T23:40:01.734Z,57.27
2023-07-24T23:43:05.950Z,57.01
2023-07-24T23:46:12.341Z,57.01
2023-07-24T23:49:15.182Z,57.10
2023-07-24T23:52:18.035Z,56.95
2023-07-24T23:55:21.078Z,56.72
2023-07-24T23:58:25.270Z,57.10
